sensor_id;sensor_type;location;lat;lon;timestamp;P1;durP1;ratioP1;P2;durP2;ratioP2
7211;SDS011;3647;48.792;9.802;2022-09-12T04:06:08;12.33;;;5.73;;
7211;SDS011;3647;48.792;9.802;2022-09-12T04:08:36;12.00;;;5.83;;
7211;SDS011;3647;48.792;9.802;2022-09-12T04:11:04;8.33;;;5.60;;
7211;SDS011;3647;48.792;9.802;2022-09-12T04:13:33;6.33;;;5.73;;
7211;SDS011;3647;48.792;9.802;2022-09-12T04:16:00;8.97;;;5.70;;
7211;SDS011;3647;48.792;9.802;2022-09-12T04:18:28;7.37;;;5.63;;
7211;SDS011;3647;48.792;9.802;2022-09-12T04:20:55;6.47;;;5.87;;
7211;SDS011;3647;48.792;9.802;2022-09-12T04:23:24;6.70;;;5.97;;
7211;SDS011;3647;48.792;9.802;2022-09-12T04:25:54;6.80;;;5.37;;
7211;SDS011;3647;48.792;9.802;2022-09-12T04:28:21;9.87;;;5.30;;
7211;SDS011;3647;48.792;9.802;2022-09-12T04:30:48;6.03;;;4.90;;
7211;SDS011;3647;48.792;9.802;2022-09-12T04:33:15;6.07;;;5.43;;
7211;SDS011;3647;48.792;9.802;2022-09-12T04:35:43;7.10;;;5.33;;
7211;SDS011;3647;48.792;9.802;2022-09-12T04:38:11;6.97;;;6.23;;
7211;SDS011;3647;48.792;9.802;2022-09-12T04:40:39;8.20;;;6.00;;
7211;SDS011;3647;48.792;9.802;2022-09-12T04:43:06;6.13;;;5.53;;
7211;SDS011;3647;48.792;9.802;2022-09-12T04:45:33;6.20;;;5.60;;
7211;SDS011;3647;48.792;9.802;2022-09-12T04:48:00;7.70;;;6.13;;
7211;SDS011;3647;48.792;9.802;2022-09-12T04:50:27;5.97;;;5.37;;
7211;SDS011;3647;48.792;9.802;2022-09-12T04:52:54;7.13;;;5.90;;
7211;SDS011;3647;48.792;9.802;2022-09-12T13:07:39;2.33;;;1.73;;
7211;SDS011;3647;48.792;9.802;2022-09-12T13:10:06;1.75;;;1.65;;
7211;SDS011;3647;48.792;9.802;2022-09-12T13:12:34;2.65;;;1.40;;
7211;SDS011;3647;48.792;9.802;2022-09-12T13:15:03;1.83;;;1.73;;
7211;SDS011;3647;48.792;9.802;2022-09-12T13:18:09;1.67;;;1.58;;
7211;SDS011;3647;48.792;9.802;2022-09-12T13:20:43;2.45;;;1.75;;
7211;SDS011;3647;48.792;9.802;2022-09-12T13:23:21;1.65;;;1.55;;
7211;SDS011;3647;48.792;9.802;2022-09-12T13:25:52;1.70;;;1.60;;
7211;SDS011;3647;48.792;9.802;2022-09-12T13:28:20;1.58;;;1.48;;
7211;SDS011;3647;48.792;9.802;2022-09-12T13:30:53;1.60;;;1.50;;
7211;SDS011;3647;48.792;9.802;2022-09-12T13:33:28;1.80;;;1.60;;
7211;SDS011;3647;48.792;9.802;2022-09-12T13:39:11;2.55;;;1.50;;
7211;SDS011;3647;48.792;9.802;2022-09-12T13:41:51;1.73;;;1.60;;
7211;SDS011;3647;48.792;9.802;2022-09-12T13:44:36;1.67;;;1.58;;
7211;SDS011;3647;48.792;9.802;2022-09-12T13:47:06;1.58;;;1.48;;
7211;SDS011;3647;48.792;9.802;2022-09-12T13:49:38;1.73;;;1.60;;
7211;SDS011;3647;48.792;9.802;2022-09-12T13:52:07;1.88;;;1.77;;
7211;SDS011;3647;48.792;9.802;2022-09-12T13:54:41;1.38;;;1.27;;
7211;SDS011;3647;48.792;9.802;2022-09-12T13:57:24;2.10;;;1.30;;
7211;SDS011;3647;48.792;9.802;2022-09-12T13:59:54;1.92;;;1.58;;
7211;SDS011;3647;48.792;9.802;2022-09-12T14:02:23;1.70;;;1.60;;
7211;SDS011;3647;48.792;9.802;2022-09-12T14:04:52;1.70;;;1.60;;
7211;SDS011;3647;48.792;9.802;2022-09-12T14:07:38;1.50;;;1.40;;
7211;SDS011;3647;48.792;9.802;2022-09-12T14:10:19;1.40;;;1.30;;
7211;SDS011;3647;48.792;9.802;2022-09-12T14:12:48;1.65;;;1.38;;
7211;SDS011;3647;48.792;9.802;2022-09-12T14:15:16;1.95;;;1.50;;
7211;SDS011;3647;48.792;9.802;2022-09-12T14:17:47;1.55;;;1.45;;
7211;SDS011;3647;48.792;9.802;2022-09-12T14:20:17;1.45;;;1.35;;
7211;SDS011;3647;48.792;9.802;2022-09-12T14:22:47;3.05;;;1.35;;
7211;SDS011;3647;48.792;9.802;2022-09-12T14:25:16;1.73;;;1.42;;
7211;SDS011;3647;48.792;9.802;2022-09-12T14:27:45;1.50;;;1.40;;
7211;SDS011;3647;48.792;9.802;2022-09-12T14:30:20;1.50;;;1.40;;
7211;SDS011;3647;48.792;9.802;2022-09-12T14:33:03;1.65;;;1.55;;
7211;SDS011;3647;48.792;9.802;2022-09-12T14:35:31;1.50;;;1.40;;
7211;SDS011;3647;48.792;9.802;2022-09-12T14:38:04;1.65;;;1.55;;
7211;SDS011;3647;48.792;9.802;2022-09-12T14:40:40;1.30;;;1.20;;
7211;SDS011;3647;48.792;9.802;2022-09-12T14:43:15;1.77;;;1.50;;
7211;SDS011;3647;48.792;9.802;2022-09-12T14:45:50;1.50;;;1.40;;
7211;SDS011;3647;48.792;9.802;2022-09-12T14:48:18;1.50;;;1.40;;
7211;SDS011;3647;48.792;9.802;2022-09-12T14:50:47;2.78;;;1.55;;
7211;SDS011;3647;48.792;9.802;2022-09-12T14:53:29;1.40;;;1.30;;
7211;SDS011;3647;48.792;9.802;2022-09-12T14:56:06;1.90;;;1.50;;
7211;SDS011;3647;48.792;9.802;2022-09-12T14:58:34;3.42;;;2.00;;
7211;SDS011;3647;48.792;9.802;2022-09-12T15:01:02;1.58;;;1.48;;
7211;SDS011;3647;48.792;9.802;2022-09-12T15:03:48;2.42;;;1.30;;
7211;SDS011;3647;48.792;9.802;2022-09-12T15:06:19;1.58;;;1.48;;
7211;SDS011;3647;48.792;9.802;2022-09-12T15:08:48;1.83;;;1.73;;
7211;SDS011;3647;48.792;9.802;2022-09-12T15:11:18;1.60;;;1.50;;
7211;SDS011;3647;48.792;9.802;2022-09-12T15:13:45;1.52;;;1.42;;
7211;SDS011;3647;48.792;9.802;2022-09-12T15:16:12;3.67;;;1.55;;
7211;SDS011;3647;48.792;9.802;2022-09-12T15:18:39;2.25;;;1.55;;
7211;SDS011;3647;48.792;9.802;2022-09-12T15:21:07;1.88;;;1.63;;
7211;SDS011;3647;48.792;9.802;2022-09-12T15:23:38;1.70;;;1.60;;
7211;SDS011;3647;48.792;9.802;2022-09-12T15:26:09;1.42;;;1.33;;
7211;SDS011;3647;48.792;9.802;2022-09-12T15:28:38;1.40;;;1.30;;
7211;SDS011;3647;48.792;9.802;2022-09-12T15:31:06;1.58;;;1.48;;
7211;SDS011;3647;48.792;9.802;2022-09-12T15:33:37;1.40;;;1.30;;
7211;SDS011;3647;48.792;9.802;2022-09-12T15:36:07;1.80;;;1.70;;
7211;SDS011;3647;48.792;9.802;2022-09-12T15:38:39;1.80;;;1.58;;
7211;SDS011;3647;48.792;9.802;2022-09-12T15:41:08;1.40;;;1.30;;
7211;SDS011;3647;48.792;9.802;2022-09-12T15:43:36;1.65;;;1.55;;
7211;SDS011;3647;48.792;9.802;2022-09-12T15:46:04;1.83;;;1.40;;
7211;SDS011;3647;48.792;9.802;2022-09-12T15:48:31;1.30;;;1.20;;
7211;SDS011;3647;48.792;9.802;2022-09-12T15:50:58;1.60;;;1.50;;
7211;SDS011;3647;48.792;9.802;2022-09-12T15:53:25;1.73;;;1.20;;
7211;SDS011;3647;48.792;9.802;2022-09-12T15:55:52;3.38;;;1.45;;
7211;SDS011;3647;48.792;9.802;2022-09-12T15:58:19;1.98;;;1.25;;
7211;SDS011;3647;48.792;9.802;2022-09-12T16:00:46;2.65;;;1.40;;
7211;SDS011;3647;48.792;9.802;2022-09-12T16:03:18;1.60;;;1.50;;
7211;SDS011;3647;48.792;9.802;2022-09-12T16:05:47;1.30;;;1.20;;
7211;SDS011;3647;48.792;9.802;2022-09-12T16:08:15;1.85;;;1.70;;
7211;SDS011;3647;48.792;9.802;2022-09-12T16:10:42;1.55;;;1.45;;
7211;SDS011;3647;48.792;9.802;2022-09-12T16:13:09;1.60;;;1.50;;
7211;SDS011;3647;48.792;9.802;2022-09-12T16:15:35;1.60;;;1.48;;
7211;SDS011;3647;48.792;9.802;2022-09-12T16:18:02;1.70;;;1.60;;
7211;SDS011;3647;48.792;9.802;2022-09-12T16:20:30;2.33;;;1.23;;
7211;SDS011;3647;48.792;9.802;2022-09-12T16:22:57;2.03;;;1.58;;
7211;SDS011;3647;48.792;9.802;2022-09-12T16:25:24;2.67;;;1.60;;
7211;SDS011;3647;48.792;9.802;2022-09-12T16:27:51;1.55;;;1.15;;
7211;SDS011;3647;48.792;9.802;2022-09-12T16:30:17;1.40;;;1.30;;
7211;SDS011;3647;48.792;9.802;2022-09-12T16:32:44;1.60;;;1.50;;
7211;SDS011;3647;48.792;9.802;2022-09-12T16:35:11;1.70;;;1.60;;
7211;SDS011;3647;48.792;9.802;2022-09-12T16:37:39;1.92;;;1.83;;
7211;SDS011;3647;48.792;9.802;2022-09-12T16:40:07;1.50;;;1.40;;
7211;SDS011;3647;48.792;9.802;2022-09-12T16:42:34;1.95;;;1.85;;
7211;SDS011;3647;48.792;9.802;2022-09-12T16:45:02;2.55;;;2.13;;
7211;SDS011;3647;48.792;9.802;2022-09-12T16:47:29;2.25;;;1.77;;
7211;SDS011;3647;48.792;9.802;2022-09-12T16:49:57;1.50;;;1.40;;
7211;SDS011;3647;48.792;9.802;2022-09-12T16:52:24;3.15;;;1.65;;
7211;SDS011;3647;48.792;9.802;2022-09-12T16:54:52;1.63;;;1.50;;
7211;SDS011;3647;48.792;9.802;2022-09-12T16:57:19;1.77;;;1.60;;
7211;SDS011;3647;48.792;9.802;2022-09-12T16:59:48;1.50;;;1.40;;
7211;SDS011;3647;48.792;9.802;2022-09-12T17:02:14;1.67;;;1.27;;
7211;SDS011;3647;48.792;9.802;2022-09-12T17:04:41;2.42;;;1.48;;
7211;SDS011;3647;48.792;9.802;2022-09-12T17:07:08;1.50;;;1.40;;
7211;SDS011;3647;48.792;9.802;2022-09-12T17:09:35;1.55;;;1.40;;
7211;SDS011;3647;48.792;9.802;2022-09-12T17:12:03;2.40;;;1.40;;
7211;SDS011;3647;48.792;9.802;2022-09-12T17:14:30;2.15;;;1.55;;
7211;SDS011;3647;48.792;9.802;2022-09-12T17:16:57;1.48;;;1.38;;
7211;SDS011;3647;48.792;9.802;2022-09-12T17:19:24;1.73;;;1.63;;
7211;SDS011;3647;48.792;9.802;2022-09-12T17:21:54;4.53;;;1.88;;
7211;SDS011;3647;48.792;9.802;2022-09-12T17:24:21;3.05;;;2.20;;
7211;SDS011;3647;48.792;9.802;2022-09-12T17:26:48;2.03;;;1.58;;
7211;SDS011;3647;48.792;9.802;2022-09-12T17:29:16;1.88;;;1.60;;
7211;SDS011;3647;48.792;9.802;2022-09-12T17:31:43;1.70;;;1.60;;
7211;SDS011;3647;48.792;9.802;2022-09-12T17:34:10;1.52;;;1.42;;
7211;SDS011;3647;48.792;9.802;2022-09-12T17:36:38;1.85;;;1.75;;
7211;SDS011;3647;48.792;9.802;2022-09-12T17:39:08;1.85;;;1.70;;
7211;SDS011;3647;48.792;9.802;2022-09-12T17:41:35;2.05;;;1.95;;
7211;SDS011;3647;48.792;9.802;2022-09-12T17:44:02;2.53;;;2.10;;
7211;SDS011;3647;48.792;9.802;2022-09-12T17:46:33;1.90;;;1.70;;
7211;SDS011;3647;48.792;9.802;2022-09-12T17:49:02;2.95;;;1.90;;
7211;SDS011;3647;48.792;9.802;2022-09-12T17:51:29;1.95;;;1.75;;
7211;SDS011;3647;48.792;9.802;2022-09-12T17:53:57;2.70;;;2.00;;
7211;SDS011;3647;48.792;9.802;2022-09-12T17:56:26;2.20;;;2.00;;
7211;SDS011;3647;48.792;9.802;2022-09-12T17:58:54;2.72;;;2.17;;
7211;SDS011;3647;48.792;9.802;2022-09-12T18:01:22;1.70;;;1.60;;
7211;SDS011;3647;48.792;9.802;2022-09-12T18:04:08;2.38;;;1.90;;
7211;SDS011;3647;48.792;9.802;2022-09-12T18:06:35;2.13;;;1.92;;
7211;SDS011;3647;48.792;9.802;2022-09-12T18:09:05;2.00;;;1.80;;
7211;SDS011;3647;48.792;9.802;2022-09-12T18:11:34;2.85;;;2.00;;
7211;SDS011;3647;48.792;9.802;2022-09-12T18:20:33;2.40;;;2.20;;
7211;SDS011;3647;48.792;9.802;2022-09-12T18:23:00;2.13;;;2.03;;
7211;SDS011;3647;48.792;9.802;2022-09-12T18:25:27;3.75;;;1.95;;
7211;SDS011;3647;48.792;9.802;2022-09-12T18:27:54;2.95;;;2.40;;
7211;SDS011;3647;48.792;9.802;2022-09-12T18:30:20;3.13;;;2.20;;
7211;SDS011;3647;48.792;9.802;2022-09-12T18:32:47;7.18;;;2.67;;
7211;SDS011;3647;48.792;9.802;2022-09-12T18:35:15;2.20;;;2.05;;
7211;SDS011;3647;48.792;9.802;2022-09-12T18:37:43;3.22;;;2.35;;
7211;SDS011;3647;48.792;9.802;2022-09-12T18:40:10;3.17;;;2.33;;
7211;SDS011;3647;48.792;9.802;2022-09-12T18:42:37;6.88;;;2.55;;
7211;SDS011;3647;48.792;9.802;2022-09-12T18:45:04;2.90;;;2.40;;
7211;SDS011;3647;48.792;9.802;2022-09-12T18:47:32;2.80;;;2.60;;
7211;SDS011;3647;48.792;9.802;2022-09-12T18:49:58;2.83;;;2.20;;
7211;SDS011;3647;48.792;9.802;2022-09-12T18:52:25;2.67;;;2.47;;
7211;SDS011;3647;48.792;9.802;2022-09-12T18:54:53;4.05;;;2.72;;
7211;SDS011;3647;48.792;9.802;2022-09-12T18:57:20;3.88;;;2.53;;
7211;SDS011;3647;48.792;9.802;2022-09-12T18:59:47;2.80;;;2.60;;
7211;SDS011;3647;48.792;9.802;2022-09-12T19:02:14;2.95;;;2.72;;
7211;SDS011;3647;48.792;9.802;2022-09-12T19:04:41;5.10;;;2.67;;
7211;SDS011;3647;48.792;9.802;2022-09-12T19:07:09;3.72;;;2.70;;
7211;SDS011;3647;48.792;9.802;2022-09-12T19:09:36;4.25;;;3.05;;
7211;SDS011;3647;48.792;9.802;2022-09-12T19:12:04;4.97;;;3.00;;
7211;SDS011;3647;48.792;9.802;2022-09-12T19:14:31;3.70;;;2.72;;
7211;SDS011;3647;48.792;9.802;2022-09-12T19:16:58;2.80;;;2.60;;
7211;SDS011;3647;48.792;9.802;2022-09-12T19:21:56;15.18;;;3.08;;
7211;SDS011;3647;48.792;9.802;2022-09-12T19:24:23;3.05;;;2.85;;
7211;SDS011;3647;48.792;9.802;2022-09-12T19:26:50;2.95;;;2.75;;
7211;SDS011;3647;48.792;9.802;2022-09-12T19:29:19;4.43;;;4.03;;
7211;SDS011;3647;48.792;9.802;2022-09-12T19:31:45;3.40;;;3.10;;
7211;SDS011;3647;48.792;9.802;2022-09-12T19:34:12;4.20;;;3.70;;
7211;SDS011;3647;48.792;9.802;2022-09-12T19:36:39;3.42;;;3.13;;
7211;SDS011;3647;48.792;9.802;2022-09-12T19:39:07;3.38;;;3.08;;
7211;SDS011;3647;48.792;9.802;2022-09-12T19:41:34;3.23;;;2.93;;
7211;SDS011;3647;48.792;9.802;2022-09-12T19:44:01;6.00;;;3.00;;
7211;SDS011;3647;48.792;9.802;2022-09-12T19:46:30;3.22;;;2.92;;
7211;SDS011;3647;48.792;9.802;2022-09-12T19:48:57;3.25;;;3.05;;
7211;SDS011;3647;48.792;9.802;2022-09-12T19:51:23;4.80;;;3.47;;
7211;SDS011;3647;48.792;9.802;2022-09-12T19:53:50;4.30;;;3.20;;
7211;SDS011;3647;48.792;9.802;2022-09-12T19:56:18;4.20;;;2.83;;
7211;SDS011;3647;48.792;9.802;2022-09-12T19:58:45;5.50;;;2.80;;
7211;SDS011;3647;48.792;9.802;2022-09-12T20:01:13;4.37;;;3.53;;
7211;SDS011;3647;48.792;9.802;2022-09-12T20:03:42;3.63;;;2.87;;
7211;SDS011;3647;48.792;9.802;2022-09-12T20:06:10;5.50;;;3.72;;
7211;SDS011;3647;48.792;9.802;2022-09-12T20:08:38;8.55;;;5.32;;
7211;SDS011;3647;48.792;9.802;2022-09-12T20:11:06;5.35;;;4.45;;
7211;SDS011;3647;48.792;9.802;2022-09-12T20:13:33;4.32;;;3.65;;
7211;SDS011;3647;48.792;9.802;2022-09-12T20:16:04;3.55;;;3.25;;
7211;SDS011;3647;48.792;9.802;2022-09-12T20:18:32;4.25;;;3.88;;
7211;SDS011;3647;48.792;9.802;2022-09-12T20:21:06;4.07;;;3.70;;
7211;SDS011;3647;48.792;9.802;2022-09-12T20:23:37;4.30;;;3.90;;
7211;SDS011;3647;48.792;9.802;2022-09-12T20:26:05;5.47;;;3.78;;
7211;SDS011;3647;48.792;9.802;2022-09-12T20:28:32;4.20;;;3.80;;
7211;SDS011;3647;48.792;9.802;2022-09-12T20:31:00;4.60;;;3.70;;
7211;SDS011;3647;48.792;9.802;2022-09-12T20:33:27;5.07;;;4.57;;
7211;SDS011;3647;48.792;9.802;2022-09-12T20:35:59;4.20;;;3.70;;
7211;SDS011;3647;48.792;9.802;2022-09-12T20:38:28;5.60;;;3.97;;
7211;SDS011;3647;48.792;9.802;2022-09-12T20:40:55;4.10;;;3.63;;
7211;SDS011;3647;48.792;9.802;2022-09-12T20:43:22;5.30;;;3.60;;
7211;SDS011;3647;48.792;9.802;2022-09-12T20:45:49;5.47;;;3.87;;
7211;SDS011;3647;48.792;9.802;2022-09-12T20:48:16;4.23;;;3.90;;
7211;SDS011;3647;48.792;9.802;2022-09-12T20:50:43;6.60;;;3.70;;
7211;SDS011;3647;48.792;9.802;2022-09-12T20:53:10;4.30;;;3.90;;
7211;SDS011;3647;48.792;9.802;2022-09-12T20:55:38;7.23;;;3.80;;
7211;SDS011;3647;48.792;9.802;2022-09-12T20:58:05;5.53;;;3.47;;
7211;SDS011;3647;48.792;9.802;2022-09-12T21:00:32;3.77;;;3.20;;
7211;SDS011;3647;48.792;9.802;2022-09-12T21:02:59;4.83;;;3.50;;
7211;SDS011;3647;48.792;9.802;2022-09-12T21:05:26;4.33;;;3.90;;
7211;SDS011;3647;48.792;9.802;2022-09-12T21:07:52;5.30;;;4.03;;
7211;SDS011;3647;48.792;9.802;2022-09-12T21:10:19;9.77;;;4.37;;
7211;SDS011;3647;48.792;9.802;2022-09-12T21:12:47;4.57;;;3.67;;
7211;SDS011;3647;48.792;9.802;2022-09-12T21:15:14;4.40;;;3.97;;
7211;SDS011;3647;48.792;9.802;2022-09-12T21:17:41;4.83;;;3.77;;
7211;SDS011;3647;48.792;9.802;2022-09-12T21:20:08;4.80;;;4.30;;
7211;SDS011;3647;48.792;9.802;2022-09-12T21:22:35;4.87;;;3.77;;
7211;SDS011;3647;48.792;9.802;2022-09-12T21:25:02;3.93;;;3.40;;
7211;SDS011;3647;48.792;9.802;2022-09-12T21:27:30;5.33;;;3.70;;
7211;SDS011;3647;48.792;9.802;2022-09-12T21:29:58;4.13;;;3.73;;
7211;SDS011;3647;48.792;9.802;2022-09-12T21:32:27;5.77;;;4.43;;
